Domov               UVHVVR             MKGP            O straneh              
ZDRAVSTVENO VARSTVO RASTLIN
  MREŽA AGROMET. POSTAJ
 ► PROGNOSTIČNA OBVESTILA
AGROMETEOROLOŠKI PODATKI -
ARSO
OBVLADOVANJE TVEGANJ ZARADI
NEUGODNIH VREMENSKIH RAZMER
  ► NARAVNE NESREČE
  ► SUŠA/MOČA
  ► NAMAKANJE
  ► ŽLED (gozdarstvo)
KARTOGRAFSKI PRIKAZI
SPLETNE POVEZAVE
PROJEKTI IN PUBLIKACIJE

AGROMETEOROLOŠKA MREŽA: VREMENSKE POSTAJE IN FENOLOŠKA OPAZOVANJA

Pregled podatkov za lokacijo Purisima, meteorološka postaja 863702

Pregled senzorjev na lokaciji

ID Ime Zadnja
vrednost
Datum
zadnje
spremembe
Tip
senzorja
4190 Temperatura 2 m ( °C) 18,08 °C 19.10.2017 16:15 50YA
4191 Relativna vlaga 2 m (% RH) 77,24 % RH 19.10.2017 16:14 50YA
4192 Omočenost lista (U) 0 U 19.10.2017 16:14 A730WET
4193 Padavine 0.2 mm (mm) 0 mm 19.10.2017 16:15 Rain-O-Matic

Pregled podatkov zadnjih 24 ur

Zap.
št.
Datum in čas Purisima
Omočenost
lista
Padavine
0.2
mm
Relativna
vlaga
2
m
Temperatura
2
m
0 19.10.2017 15:30 0 0 77,24 18,08
1 19.10.2017 15:00 0 0 75,49 18,48
2 19.10.2017 14:30 0 0 73,3 19,02
3 19.10.2017 14:00 0 0 72,12 19,43
4 19.10.2017 13:30 0 0 70,73 19,85
5 19.10.2017 13:00 0 0 67,98 20,28
6 19.10.2017 12:30 0 0 67,02 19,81
7 19.10.2017 12:00 0 0 67,52 19,45
8 19.10.2017 11:30 0 0 68,07 19,24
9 19.10.2017 11:00 0 0 71,59 18,5
10 19.10.2017 10:30 10 0 77,56 16,88
11 19.10.2017 10:00 10 0 83,22 16,25
12 19.10.2017 09:30 10 0 93,07 15,43
13 19.10.2017 09:00 10 0 100 13,42
14 19.10.2017 08:30 10 0 100 12,76
15 19.10.2017 08:00 10 0 100 11,93
16 19.10.2017 07:30 10 0 100 11,12
17 19.10.2017 07:00 10 0 100 10,57
18 19.10.2017 06:30 10 0 100 10,23
19 19.10.2017 06:00 10 0 100 8,7
20 19.10.2017 05:30 10 0 100 8,64
21 19.10.2017 05:00 10 0 100 8,81
22 19.10.2017 04:30 10 0 100 8,88
23 19.10.2017 04:00 10 0 100 9,31
24 19.10.2017 03:30 10 0 99,95 9,09
25 19.10.2017 03:00 10 0 99,75 9,37
26 19.10.2017 02:30 10 0 99,06 10,39
27 19.10.2017 02:00 10 0 99,97 11,62
28 19.10.2017 01:30 10 0 100 12,48
29 19.10.2017 01:00 10 0 100 11,56
30 19.10.2017 00:30 10 0 100 11,33
31 19.10.2017 00:00 10 0 100 11,52
32 18.10.2017 23:30 10 0 100 11,31
33 18.10.2017 23:00 10 0 99,21 11,29
34 18.10.2017 22:30 10 0 100 12,66
35 18.10.2017 22:00 10 0 100 12,45
36 18.10.2017 21:30 8 0 99,54 11,04
37 18.10.2017 21:00 5 0 98,71 11,12
38 18.10.2017 20:30 3 0 97,98 11,39
39 18.10.2017 20:00 1 0 99 12
40 18.10.2017 19:30 0 0 97,79 11,91
41 18.10.2017 19:00 0 0 97,94 12,32
42 18.10.2017 18:30 0 0 94,63 12,34
43 18.10.2017 18:00 0 0 94,62 13,4
44 18.10.2017 17:30 0 0 91,04 14,44
45 18.10.2017 17:00 0 0 84,56 16,16
46 18.10.2017 16:30 0 0 80 17,55
© 2011 Ministrstvo za kmetijstvo, gozdarstvo in prehrano. Vse pravice pridržane.